Time;durP1;ratioP1;P1;durP2;ratioP2;P2;SDS_P1;SDS_P2;PMS_P1;PMS_P2;Temp;Humidity;BMP_temperature;BMP_pressure;BME280_temperature;BME280_humidity;BME280_pressure;Samples;Min_cycle;Max_cycle;Signal;HPM_P1;HPM_P2
2021/12/27 00:00:41;;;;;;;0.80;0.80;;;;;;;;;;5042557;28;20219;-74
2021/12/27 00:03:09;;;;;;;0.10;0.10;;;;;;;;;;5052792;28;20233;-73
2021/12/27 00:05:37;;;;;;;1.80;1.70;;;;;;;;;;5037125;28;20627;-74
2021/12/27 00:08:03;;;;;;;0.20;0.20;;;;;;;;;;5035740;28;20223;-74
2021/12/27 00:10:34;;;;;;;0.93;0.93;;;;;;;;;;5040247;28;20340;-73
2021/12/27 00:13:02;;;;;;;0.20;0.20;;;;;;;;;;5042084;28;20597;-73
2021/12/27 00:15:30;;;;;;;0.20;0.20;;;;;;;;;;5020625;28;20215;-74
2021/12/27 00:17:58;;;;;;;0.10;0.10;;;;;;;;;;5037018;28;20758;-73
2021/12/27 00:20:27;;;;;;;0.10;0.10;;;;;;;;;;5036379;28;20687;-74
2021/12/27 00:23:00;;;;;;;0.13;0.13;;;;;;;;;;5056328;28;20223;-73
2021/12/27 00:25:26;;;;;;;0.20;0.20;;;;;;;;;;5056789;28;20850;-73
2021/12/27 00:27:52;;;;;;;1.33;1.23;;;;;;;;;;5069959;28;20219;-73
2021/12/27 00:30:22;;;;;;;0.67;0.67;;;;;;;;;;5020553;28;20226;-75
2021/12/27 00:32:48;;;;;;;0.40;0.40;;;;;;;;;;5020037;28;20226;-73
2021/12/27 00:35:18;;;;;;;1.43;1.33;;;;;;;;;;5056418;28;20253;-74
2021/12/27 00:37:52;;;;;;;0.10;0.10;;;;;;;;;;5040713;28;20695;-74
2021/12/27 00:40:20;;;;;;;0.10;0.10;;;;;;;;;;5010335;28;20221;-75
2021/12/27 00:42:46;;;;;;;0.10;0.10;;;;;;;;;;5055992;28;20222;-74
2021/12/27 00:45:14;;;;;;;0.10;0.10;;;;;;;;;;5039482;28;20317;-74
2021/12/27 00:47:39;;;;;;;0.10;0.10;;;;;;;;;;5040712;28;20234;-73
2021/12/27 00:50:05;;;;;;;0.10;0.10;;;;;;;;;;5039826;28;20592;-74
2021/12/27 00:52:32;;;;;;;0.20;0.20;;;;;;;;;;5061905;28;20222;-74
2021/12/27 00:55:00;;;;;;;1.97;1.83;;;;;;;;;;5052190;28;20218;-74
2021/12/27 00:57:28;;;;;;;2.77;0.73;;;;;;;;;;5022401;28;20215;-74
2021/12/27 00:59:53;;;;;;;1.20;1.20;;;;;;;;;;5022727;28;20695;-74
2021/12/27 01:02:23;;;;;;;0.87;0.87;;;;;;;;;;5039755;28;20226;-74
2021/12/27 01:04:51;;;;;;;0.57;0.57;;;;;;;;;;5057545;28;20616;-73
2021/12/27 01:07:17;;;;;;;0.20;0.20;;;;;;;;;;5060326;28;20223;-74
2021/12/27 01:10:06;;;;;;;0.20;0.20;;;;;;;;;;5044225;28;20732;-75
2021/12/27 01:12:47;;;;;;;0.30;0.30;;;;;;;;;;5078766;28;20258;-74
2021/12/27 01:17:42;;;;;;;2.40;2.20;;;;;;;;;;5040491;28;20237;-74
2021/12/27 01:20:13;;;;;;;0.30;0.30;;;;;;;;;;5023540;28;20631;-74
2021/12/27 01:22:43;;;;;;;0.10;0.10;;;;;;;;;;5050807;28;20226;-74
2021/12/27 01:25:12;;;;;;;0.57;0.57;;;;;;;;;;5044594;28;20649;-74
2021/12/27 01:27:43;;;;;;;5.93;1.70;;;;;;;;;;5039930;28;20218;-74
2021/12/27 01:30:15;;;;;;;0.53;0.43;;;;;;;;;;5056393;28;20218;-74
2021/12/27 01:32:46;;;;;;;0.10;0.10;;;;;;;;;;5043886;28;20251;-75
2021/12/27 01:35:12;;;;;;;1.03;1.03;;;;;;;;;;5025260;28;20348;-74
2021/12/27 01:37:43;;;;;;;0.37;0.37;;;;;;;;;;5022220;28;20727;-74
2021/12/27 01:40:09;;;;;;;0.10;0.10;;;;;;;;;;5046962;28;20609;-75
2021/12/27 01:42:34;;;;;;;0.10;0.10;;;;;;;;;;5038676;28;20230;-74
2021/12/27 01:45:00;;;;;;;0.30;0.30;;;;;;;;;;5038546;28;20225;-74
2021/12/27 01:47:29;;;;;;;0.13;0.13;;;;;;;;;;5038154;28;20219;-74
2021/12/27 01:50:00;;;;;;;0.10;0.10;;;;;;;;;;5006346;28;20713;-74
2021/12/27 01:52:30;;;;;;;0.10;0.10;;;;;;;;;;5038626;28;20210;-74
2021/12/27 01:54:55;;;;;;;0.83;0.83;;;;;;;;;;5022826;28;20223;-74
2021/12/27 01:57:23;;;;;;;0.10;0.10;;;;;;;;;;5022559;28;20723;-74
2021/12/27 01:59:48;;;;;;;0.77;0.77;;;;;;;;;;5056075;28;20218;-74
2021/12/27 02:02:14;;;;;;;0.20;0.20;;;;;;;;;;5053794;28;20219;-74
2021/12/27 02:04:39;;;;;;;0.30;0.30;;;;;;;;;;5046370;28;20266;-74
2021/12/27 02:07:05;;;;;;;0.63;0.60;;;;;;;;;;5021316;28;20738;-74
2021/12/27 02:09:42;;;;;;;0.10;0.10;;;;;;;;;;5021991;28;20306;-74
2021/12/27 02:12:10;;;;;;;0.10;0.10;;;;;;;;;;5041887;28;20214;-73
2021/12/27 02:14:36;;;;;;;0.30;0.30;;;;;;;;;;5031145;28;20294;-74
2021/12/27 02:17:03;;;;;;;0.17;0.17;;;;;;;;;;5038583;28;20272;-74
2021/12/27 02:19:37;;;;;;;0.20;0.20;;;;;;;;;;5038208;28;20285;-74
2021/12/27 02:22:06;;;;;;;0.10;0.10;;;;;;;;;;5022005;28;20329;-74
2021/12/27 02:24:33;;;;;;;0.70;0.70;;;;;;;;;;5054673;28;20691;-74
2021/12/27 02:27:01;;;;;;;0.20;0.20;;;;;;;;;;5046351;28;20226;-74
2021/12/27 02:29:26;;;;;;;0.10;0.10;;;;;;;;;;5057773;28;20282;-73
2021/12/27 02:31:52;;;;;;;0.30;0.30;;;;;;;;;;5038260;28;20222;-74
2021/12/27 02:34:20;;;;;;;1.10;0.87;;;;;;;;;;5072183;28;20224;-74
2021/12/27 02:36:49;;;;;;;0.10;0.10;;;;;;;;;;5038323;28;20218;-74
2021/12/27 02:39:16;;;;;;;0.30;0.30;;;;;;;;;;5071815;28;20218;-74
2021/12/27 02:41:41;;;;;;;0.37;0.37;;;;;;;;;;5037774;28;20222;-75
2021/12/27 02:44:07;;;;;;;0.10;0.10;;;;;;;;;;5037337;28;20233;-74
2021/12/27 02:46:34;;;;;;;0.87;0.87;;;;;;;;;;5021559;28;20348;-74
2021/12/27 02:48:59;;;;;;;0.20;0.20;;;;;;;;;;5038478;28;20231;-74
2021/12/27 02:51:25;;;;;;;0.77;0.77;;;;;;;;;;5004268;28;20221;-75
2021/12/27 02:53:50;;;;;;;0.10;0.10;;;;;;;;;;5071951;28;20580;-74
2021/12/27 02:56:17;;;;;;;0.10;0.10;;;;;;;;;;5021849;28;20774;-74
2021/12/27 02:58:46;;;;;;;0.20;0.20;;;;;;;;;;5058829;28;20218;-75
2021/12/27 03:01:20;;;;;;;0.20;0.20;;;;;;;;;;5038801;28;20218;-74
2021/12/27 03:03:46;;;;;;;0.20;0.20;;;;;;;;;;5058960;28;20318;-74
2021/12/27 03:06:12;;;;;;;0.73;0.73;;;;;;;;;;5037351;28;20273;-75
2021/12/27 03:08:41;;;;;;;0.10;0.10;;;;;;;;;;5061738;28;20692;-74
2021/12/27 03:11:10;;;;;;;0.30;0.30;;;;;;;;;;5046555;28;20332;-75
2021/12/27 03:13:39;;;;;;;0.10;0.10;;;;;;;;;;5054095;28;20222;-74
2021/12/27 03:16:11;;;;;;;1.20;1.17;;;;;;;;;;5037559;28;20305;-74
2021/12/27 03:18:45;;;;;;;1.13;1.13;;;;;;;;;;5037066;28;20222;-74
2021/12/27 03:21:10;;;;;;;0.10;0.10;;;;;;;;;;5037148;28;20272;-74
2021/12/27 03:23:37;;;;;;;0.10;0.10;;;;;;;;;;5053490;28;20716;-75
2021/12/27 03:26:03;;;;;;;3.50;2.77;;;;;;;;;;5036837;28;20218;-75
2021/12/27 03:28:31;;;;;;;0.40;0.40;;;;;;;;;;5020602;28;20592;-74
2021/12/27 03:30:59;;;;;;;0.10;0.10;;;;;;;;;;5024797;28;20218;-75
2021/12/27 03:33:24;;;;;;;4.13;2.20;;;;;;;;;;5024952;28;20214;-74
2021/12/27 03:36:07;;;;;;;0.20;0.20;;;;;;;;;;5040547;28;20222;-75
2021/12/27 03:38:40;;;;;;;0.20;0.20;;;;;;;;;;5041922;28;20223;-75
2021/12/27 03:41:07;;;;;;;0.10;0.10;;;;;;;;;;5038420;28;20778;-74
2021/12/27 03:43:32;;;;;;;0.10;0.10;;;;;;;;;;5044105;28;20712;-73
2021/12/27 03:46:00;;;;;;;0.17;0.17;;;;;;;;;;5051676;28;20638;-74
2021/12/27 03:48:26;;;;;;;1.03;1.03;;;;;;;;;;5021927;28;20273;-74
2021/12/27 03:50:53;;;;;;;0.10;0.10;;;;;;;;;;5032679;28;20226;-74
2021/12/27 03:53:21;;;;;;;0.10;0.10;;;;;;;;;;5045003;28;20234;-74
2021/12/27 03:55:49;;;;;;;0.10;0.10;;;;;;;;;;5020663;28;20227;-73
2021/12/27 03:58:28;;;;;;;0.10;0.10;;;;;;;;;;5019035;28;20574;-74
2021/12/27 04:03:19;;;;;;;0.10;0.10;;;;;;;;;;5051740;28;20712;-74
2021/12/27 04:05:47;;;;;;;0.10;0.10;;;;;;;;;;5036430;28;20309;-74
2021/12/27 04:08:13;;;;;;;0.10;0.10;;;;;;;;;;5052151;28;20219;-74
2021/12/27 04:10:43;;;;;;;0.30;0.30;;;;;;;;;;5021223;28;20740;-75
2021/12/27 04:13:11;;;;;;;0.80;0.80;;;;;;;;;;5052718;28;20249;-74
2021/12/27 04:15:37;;;;;;;0.10;0.10;;;;;;;;;;5053162;28;20696;-74
2021/12/27 04:18:05;;;;;;;1.23;1.20;;;;;;;;;;5036687;28;20237;-75
2021/12/27 04:20:31;;;;;;;0.83;0.83;;;;;;;;;;5007868;28;20209;-74
2021/12/27 04:23:01;;;;;;;0.10;0.10;;;;;;;;;;5039651;28;20583;-74
2021/12/27 04:25:27;;;;;;;2.23;1.57;;;;;;;;;;5026922;28;20225;-75
2021/12/27 04:27:52;;;;;;;0.80;0.80;;;;;;;;;;5020204;28;20223;-75
2021/12/27 04:30:21;;;;;;;0.93;0.93;;;;;;;;;;5003304;28;20229;-74
2021/12/27 04:32:49;;;;;;;0.70;0.70;;;;;;;;;;5036853;28;20229;-74
2021/12/27 04:35:15;;;;;;;0.27;0.27;;;;;;;;;;5034143;28;20215;-73
2021/12/27 04:37:40;;;;;;;0.20;0.20;;;;;;;;;;5042093;28;20223;-74
2021/12/27 04:40:09;;;;;;;0.20;0.20;;;;;;;;;;5019272;28;20226;-74
2021/12/27 04:42:39;;;;;;;2.27;2.13;;;;;;;;;;5070090;28;20246;-74
2021/12/27 04:45:05;;;;;;;5.83;2.40;;;;;;;;;;5003329;28;20309;-74
2021/12/27 04:47:38;;;;;;;0.93;0.93;;;;;;;;;;5043298;28;20219;-74
2021/12/27 04:50:04;;;;;;;2.97;1.80;;;;;;;;;;5052562;28;20228;-73
2021/12/27 04:52:29;;;;;;;0.30;0.30;;;;;;;;;;5018124;28;20287;-74
2021/12/27 04:54:55;;;;;;;2.00;1.90;;;;;;;;;;5044542;28;20229;-73
2021/12/27 04:57:20;;;;;;;0.30;0.30;;;;;;;;;;5035522;28;20657;-73
2021/12/27 04:59:48;;;;;;;9.57;1.37;;;;;;;;;;5069084;28;20373;-74
2021/12/27 05:02:16;;;;;;;2.33;1.90;;;;;;;;;;5019195;28;20219;-74
2021/12/27 05:04:44;;;;;;;0.10;0.10;;;;;;;;;;5019982;28;20590;-74
2021/12/27 05:07:12;;;;;;;0.10;0.10;;;;;;;;;;5035563;28;20231;-74
2021/12/27 05:09:41;;;;;;;0.10;0.10;;;;;;;;;;5046614;28;20298;-73
2021/12/27 05:12:09;;;;;;;0.20;0.20;;;;;;;;;;5024643;28;20713;-73
2021/12/27 05:14:34;;;;;;;0.10;0.10;;;;;;;;;;5021519;28;20226;-73
2021/12/27 05:17:02;;;;;;;0.13;0.13;;;;;;;;;;5053464;28;20223;-73
2021/12/27 05:19:28;;;;;;;4.70;1.80;;;;;;;;;;5014682;28;20218;-74
2021/12/27 05:21:53;;;;;;;0.70;0.70;;;;;;;;;;5019901;28;20219;-73
2021/12/27 05:24:21;;;;;;;0.10;0.10;;;;;;;;;;5068577;28;20667;-74
2021/12/27 05:26:54;;;;;;;0.40;0.40;;;;;;;;;;5056497;28;20586;-74
2021/12/27 05:29:25;;;;;;;2.37;2.20;;;;;;;;;;5023408;28;20230;-73
2021/12/27 05:31:51;;;;;;;2.00;1.90;;;;;;;;;;5039252;28;20219;-74
2021/12/27 05:34:17;;;;;;;0.37;0.37;;;;;;;;;;5022328;28;20264;-74
2021/12/27 05:36:44;;;;;;;2.77;2.63;;;;;;;;;;5063353;28;20607;-74
2021/12/27 05:39:16;;;;;;;0.20;0.20;;;;;;;;;;5043091;28;20249;-74
2021/12/27 05:41:42;;;;;;;0.53;0.53;;;;;;;;;;5023532;28;20253;-74
2021/12/27 05:44:13;;;;;;;3.73;2.10;;;;;;;;;;5043536;28;20606;-74
2021/12/27 05:46:39;;;;;;;0.10;0.10;;;;;;;;;;5075433;28;20233;-74
2021/12/27 05:49:07;;;;;;;1.70;1.60;;;;;;;;;;5047935;28;20305;-74
2021/12/27 05:51:37;;;;;;;3.70;2.13;;;;;;;;;;5073257;28;20226;-74
2021/12/27 05:54:05;;;;;;;0.10;0.10;;;;;;;;;;5039743;28;20218;-75
2021/12/27 05:56:30;;;;;;;0.83;0.83;;;;;;;;;;5021987;28;20218;-74
2021/12/27 05:59:01;;;;;;;0.53;0.53;;;;;;;;;;5006205;28;20720;-74
2021/12/27 06:01:26;;;;;;;1.50;1.40;;;;;;;;;;5054150;28;20218;-74
2021/12/27 06:03:55;;;;;;;0.10;0.10;;;;;;;;;;5022036;28;20234;-73
2021/12/27 06:06:22;;;;;;;0.10;0.10;;;;;;;;;;5022538;28;20644;-74
2021/12/27 06:08:50;;;;;;;0.20;0.20;;;;;;;;;;5056999;28;20219;-75
2021/12/27 06:11:22;;;;;;;0.17;0.17;;;;;;;;;;5055147;28;20215;-75
2021/12/27 06:13:48;;;;;;;0.10;0.10;;;;;;;;;;5062145;28;20587;-75
2021/12/27 06:16:14;;;;;;;0.50;0.50;;;;;;;;;;5014895;28;20233;-75
2021/12/27 06:18:39;;;;;;;0.30;0.30;;;;;;;;;;5054697;28;20356;-75
2021/12/27 06:21:07;;;;;;;0.43;0.43;;;;;;;;;;5037975;28;20755;-75
2021/12/27 06:23:35;;;;;;;1.67;1.57;;;;;;;;;;5072475;28;20227;-75
2021/12/27 06:26:05;;;;;;;1.10;1.10;;;;;;;;;;5038398;28;20645;-75
2021/12/27 06:28:36;;;;;;;6.30;2.93;;;;;;;;;;5025417;28;20726;-75
2021/12/27 06:31:06;;;;;;;0.63;0.63;;;;;;;;;;5029749;28;20227;-75
2021/12/27 06:33:32;;;;;;;26.63;3.03;;;;;;;;;;5021605;28;20230;-75
2021/12/27 06:35:57;;;;;;;1.43;1.43;;;;;;;;;;5054074;28;20223;-75
2021/12/27 06:38:23;;;;;;;0.10;0.10;;;;;;;;;;5021079;28;20688;-74
2021/12/27 06:40:51;;;;;;;0.43;0.43;;;;;;;;;;5049188;28;20231;-74
2021/12/27 06:43:16;;;;;;;8.00;1.90;;;;;;;;;;5051774;28;20238;-75
2021/12/27 06:45:44;;;;;;;0.10;0.10;;;;;;;;;;5030109;28;20226;-75
2021/12/27 06:48:10;;;;;;;0.60;0.60;;;;;;;;;;5050969;28;20233;-75
2021/12/27 06:50:36;;;;;;;0.23;0.23;;;;;;;;;;5067607;28;20309;-75
2021/12/27 06:53:03;;;;;;;0.50;0.50;;;;;;;;;;5071770;28;20225;-74
2021/12/27 06:55:34;;;;;;;6.60;3.30;;;;;;;;;;5048712;28;20774;-74
2021/12/27 06:58:02;;;;;;;0.20;0.20;;;;;;;;;;5071834;28;20704;-76
2021/12/27 07:00:27;;;;;;;0.93;0.93;;;;;;;;;;5037041;28;20229;-74
2021/12/27 07:02:53;;;;;;;3.00;1.73;;;;;;;;;;5022822;28;20249;-75
2021/12/27 07:05:18;;;;;;;1.20;1.10;;;;;;;;;;5046959;28;20219;-74
2021/12/27 07:07:44;;;;;;;0.10;0.10;;;;;;;;;;5031997;28;20226;-75
2021/12/27 07:10:12;;;;;;;0.43;0.43;;;;;;;;;;5039233;28;20214;-75
2021/12/27 07:12:37;;;;;;;0.70;0.53;;;;;;;;;;5053656;28;20683;-73
2021/12/27 07:15:05;;;;;;;0.10;0.10;;;;;;;;;;5020416;28;20218;-72
2021/12/27 07:17:31;;;;;;;0.87;0.87;;;;;;;;;;5055437;28;20245;-73
2021/12/27 07:19:59;;;;;;;0.67;0.67;;;;;;;;;;5055503;28;20211;-74
2021/12/27 07:22:27;;;;;;;0.50;0.50;;;;;;;;;;5034753;28;20317;-77
2021/12/27 07:24:52;;;;;;;1.30;0.77;;;;;;;;;;5052130;28;20261;-73
2021/12/27 07:27:18;;;;;;;0.10;0.10;;;;;;;;;;5029192;28;20230;-73
2021/12/27 07:29:50;;;;;;;0.60;0.60;;;;;;;;;;5071193;28;20222;-73
2021/12/27 07:32:17;;;;;;;2.03;1.93;;;;;;;;;;5033421;28;20223;-73
2021/12/27 07:35:01;;;;;;;0.37;0.37;;;;;;;;;;5052317;28;20258;-75
2021/12/27 07:37:27;;;;;;;0.10;0.10;;;;;;;;;;5034825;28;20722;-74
2021/12/27 07:39:53;;;;;;;0.57;0.57;;;;;;;;;;5048819;28;20274;-73
2021/12/27 07:42:23;;;;;;;0.10;0.10;;;;;;;;;;5047580;28;20772;-74
2021/12/27 07:44:48;;;;;;;3.27;2.90;;;;;;;;;;5062155;28;20264;-75
2021/12/27 07:47:16;;;;;;;4.17;1.90;;;;;;;;;;5025287;28;20219;-75
2021/12/27 07:49:41;;;;;;;0.77;0.77;;;;;;;;;;5051898;28;20215;-76
2021/12/27 07:52:09;;;;;;;0.47;0.47;;;;;;;;;;5053185;28;20246;-75
2021/12/27 07:54:37;;;;;;;1.63;1.53;;;;;;;;;;5067668;28;20324;-74
2021/12/27 07:57:03;;;;;;;0.47;0.47;;;;;;;;;;5047729;28;20250;-75
2021/12/27 07:59:31;;;;;;;0.33;0.33;;;;;;;;;;5036175;28;20215;-72
2021/12/27 08:02:00;;;;;;;0.57;0.57;;;;;;;;;;5071256;28;20326;-74
2021/12/27 08:04:27;;;;;;;1.13;1.13;;;;;;;;;;5022272;28;20234;-73
2021/12/27 08:06:55;;;;;;;0.43;0.43;;;;;;;;;;5037618;28;20301;-74
2021/12/27 08:09:27;;;;;;;1.60;1.60;;;;;;;;;;5037364;28;20222;-73
2021/12/27 08:11:52;;;;;;;5.03;1.27;;;;;;;;;;5047485;28;20238;-74
2021/12/27 08:14:18;;;;;;;1.60;1.30;;;;;;;;;;5020210;28;20231;-73
2021/12/27 08:16:43;;;;;;;0.43;0.43;;;;;;;;;;5040347;28;20239;-73
2021/12/27 08:19:11;;;;;;;0.60;0.60;;;;;;;;;;5024018;28;20215;-74
2021/12/27 08:21:39;;;;;;;0.53;0.53;;;;;;;;;;5049204;28;20226;-74
2021/12/27 08:24:06;;;;;;;3.93;0.70;;;;;;;;;;5060832;28;20231;-74
2021/12/27 08:26:32;;;;;;;0.57;0.57;;;;;;;;;;5036847;28;20218;-74
2021/12/27 08:29:00;;;;;;;0.10;0.10;;;;;;;;;;5049340;28;20229;-73
2021/12/27 08:31:26;;;;;;;0.47;0.47;;;;;;;;;;5045059;28;20218;-74
2021/12/27 08:33:56;;;;;;;0.10;0.10;;;;;;;;;;5049109;28;20294;-72
2021/12/27 08:36:22;;;;;;;0.20;0.20;;;;;;;;;;5020643;28;20230;-73
2021/12/27 08:38:49;;;;;;;0.73;0.50;;;;;;;;;;5053633;28;20226;-73
2021/12/27 08:41:15;;;;;;;0.90;0.90;;;;;;;;;;5052750;28;20256;-74
2021/12/27 08:43:43;;;;;;;0.10;0.10;;;;;;;;;;5021073;28;20246;-74
2021/12/27 08:46:09;;;;;;;0.10;0.10;;;;;;;;;;5052650;28;20221;-74
2021/12/27 08:48:34;;;;;;;0.97;0.97;;;;;;;;;;5034290;28;20218;-74
2021/12/27 08:51:02;;;;;;;0.10;0.10;;;;;;;;;;5032559;28;20257;-74
2021/12/27 08:53:32;;;;;;;0.17;0.17;;;;;;;;;;5028704;28;20707;-75
2021/12/27 08:56:01;;;;;;;0.30;0.30;;;;;;;;;;5011723;28;21560;-74
2021/12/27 08:58:31;;;;;;;1.13;1.13;;;;;;;;;;5036731;28;21012;-74
2021/12/27 09:00:57;;;;;;;0.77;0.77;;;;;;;;;;5029966;28;20223;-74
2021/12/27 09:03:22;;;;;;;0.47;0.47;;;;;;;;;;5002782;28;20237;-76
2021/12/27 09:05:50;;;;;;;3.50;0.93;;;;;;;;;;5019261;28;20207;-75
2021/12/27 09:08:18;;;;;;;2.53;1.90;;;;;;;;;;5032949;28;20731;-75
2021/12/27 09:10:44;;;;;;;0.50;0.50;;;;;;;;;;5051491;28;20238;-74
2021/12/27 09:13:27;;;;;;;0.80;0.53;;;;;;;;;;5030579;28;20239;-74
2021/12/27 09:15:53;;;;;;;3.37;1.77;;;;;;;;;;5072812;28;20734;-74
2021/12/27 09:18:18;;;;;;;0.43;0.43;;;;;;;;;;5071918;28;20226;-75
2021/12/27 09:20:44;;;;;;;1.13;1.13;;;;;;;;;;5016676;28;20253;-74
2021/12/27 09:23:09;;;;;;;0.20;0.20;;;;;;;;;;5053619;28;20223;-74
2021/12/27 09:25:37;;;;;;;0.57;0.57;;;;;;;;;;5032640;28;20226;-74
2021/12/27 09:28:03;;;;;;;0.63;0.63;;;;;;;;;;5037120;28;20230;-75
2021/12/27 09:30:36;;;;;;;0.20;0.20;;;;;;;;;;5041046;28;20730;-76
2021/12/27 09:33:09;;;;;;;0.43;0.43;;;;;;;;;;5052600;28;20286;-77
2021/12/27 09:35:35;;;;;;;0.10;0.10;;;;;;;;;;5056555;28;20696;-77
2021/12/27 09:38:03;;;;;;;0.20;0.20;;;;;;;;;;5055448;28;20229;-77
2021/12/27 09:40:28;;;;;;;0.20;0.20;;;;;;;;;;5039853;28;20238;-74
2021/12/27 09:42:59;;;;;;;0.10;0.10;;;;;;;;;;5039177;28;20222;-75
2021/12/27 09:45:25;;;;;;;12.53;4.10;;;;;;;;;;5056188;28;20246;-76
2021/12/27 09:47:51;;;;;;;2.07;1.97;;;;;;;;;;5021157;28;20214;-76
2021/12/27 09:50:26;;;;;;;0.50;0.50;;;;;;;;;;5051561;28;20222;-75
2021/12/27 09:52:51;;;;;;;0.43;0.43;;;;;;;;;;5065788;28;20214;-75
2021/12/27 09:55:17;;;;;;;1.63;1.53;;;;;;;;;;5054961;28;20222;-75
2021/12/27 09:57:47;;;;;;;0.50;0.50;;;;;;;;;;5051524;28;20230;-75
2021/12/27 10:00:13;;;;;;;3.50;3.03;;;;;;;;;;5054018;28;20230;-74
2021/12/27 10:02:45;;;;;;;0.40;0.40;;;;;;;;;;5012632;28;20605;-74
2021/12/27 10:05:13;;;;;;;0.63;0.63;;;;;;;;;;5027615;28;20226;-74
2021/12/27 10:07:41;;;;;;;1.30;0.70;;;;;;;;;;5030710;28;20218;-75
2021/12/27 10:10:10;;;;;;;0.20;0.20;;;;;;;;;;5054281;28;20231;-79
2021/12/27 10:12:43;;;;;;;1.23;1.23;;;;;;;;;;5072233;28;20211;-77
2021/12/27 10:15:14;;;;;;;0.70;0.70;;;;;;;;;;5039666;28;20231;-76
2021/12/27 10:17:42;;;;;;;0.60;0.60;;;;;;;;;;5023985;28;20730;-78
2021/12/27 10:20:16;;;;;;;0.30;0.30;;;;;;;;;;5042861;28;20215;-79
2021/12/27 10:22:42;;;;;;;0.20;0.20;;;;;;;;;;5032793;28;20222;-78
2021/12/27 10:25:12;;;;;;;0.40;0.40;;;;;;;;;;5023846;28;20242;-77
2021/12/27 10:27:38;;;;;;;1.40;1.30;;;;;;;;;;5022746;28;20598;-78
2021/12/27 10:30:11;;;;;;;0.53;0.53;;;;;;;;;;5021094;28;20231;-78
2021/12/27 10:32:39;;;;;;;2.00;1.90;;;;;;;;;;5042161;28;20271;-78
2021/12/27 10:35:08;;;;;;;3.13;1.30;;;;;;;;;;5044830;28;20703;-77
2021/12/27 10:37:36;;;;;;;0.63;0.63;;;;;;;;;;5050366;28;20221;-77
2021/12/27 10:40:09;;;;;;;1.03;1.03;;;;;;;;;;5039219;28;20222;-75
2021/12/27 10:42:43;;;;;;;0.40;0.40;;;;;;;;;;5022521;28;20261;-78
2021/12/27 10:45:21;;;;;;;0.10;0.10;;;;;;;;;;5036720;28;20232;-76
2021/12/27 10:47:54;;;;;;;0.30;0.30;;;;;;;;;;4988898;28;20246;-74
2021/12/27 10:50:24;;;;;;;0.60;0.60;;;;;;;;;;5038422;28;21327;-76
2021/12/27 10:52:59;;;;;;;1.57;1.53;;;;;;;;;;5054354;28;20321;-75
2021/12/27 10:55:28;;;;;;;2.73;2.63;;;;;;;;;;5034778;28;20215;-77
2021/12/27 10:58:18;;;;;;;0.13;0.13;;;;;;;;;;5053145;28;20721;-77
2021/12/27 11:00:49;;;;;;;2.07;1.73;;;;;;;;;;5031827;28;20280;-77
2021/12/27 11:03:28;;;;;;;0.20;0.20;;;;;;;;;;5037123;28;20226;-77
2021/12/27 11:05:53;;;;;;;3.37;2.67;;;;;;;;;;5023866;28;20218;-76
2021/12/27 11:08:21;;;;;;;0.47;0.47;;;;;;;;;;5062336;28;20242;-76
2021/12/27 11:10:49;;;;;;;2.77;2.53;;;;;;;;;;5036375;28;20762;-76
2021/12/27 11:13:15;;;;;;;0.30;0.30;;;;;;;;;;5056270;28;20258;-80
2021/12/27 11:15:45;;;;;;;0.87;0.87;;;;;;;;;;5058072;28;20223;-79
2021/12/27 11:18:15;;;;;;;0.73;0.73;;;;;;;;;;5041715;28;20227;-78
2021/12/27 11:20:47;;;;;;;0.70;0.70;;;;;;;;;;5016659;28;20237;-77
2021/12/27 11:23:19;;;;;;;0.60;0.60;;;;;;;;;;5057988;28;20231;-77
2021/12/27 11:25:45;;;;;;;0.30;0.30;;;;;;;;;;5031684;28;20284;-77
2021/12/27 11:28:36;;;;;;;1.40;1.30;;;;;;;;;;5038608;28;20704;-76
2021/12/27 11:31:24;;;;;;;0.77;0.77;;;;;;;;;;5024932;28;20211;-77
2021/12/27 11:34:00;;;;;;;6.23;1.13;;;;;;;;;;5072372;28;20215;-77
2021/12/27 11:36:30;;;;;;;0.87;0.87;;;;;;;;;;5049202;28;20225;-76
2021/12/27 11:38:56;;;;;;;1.00;1.00;;;;;;;;;;5044334;28;20226;-77
2021/12/27 11:41:31;;;;;;;7.63;1.47;;;;;;;;;;5028667;28;20210;-76
2021/12/27 11:43:57;;;;;;;1.90;1.23;;;;;;;;;;5058847;28;20231;-75
2021/12/27 11:46:27;;;;;;;0.83;0.83;;;;;;;;;;5057716;28;20277;-75
2021/12/27 11:48:59;;;;;;;3.00;2.70;;;;;;;;;;5037637;28;20248;-75
2021/12/27 11:51:30;;;;;;;1.20;1.10;;;;;;;;;;5007591;28;20215;-74
2021/12/27 11:54:00;;;;;;;0.20;0.20;;;;;;;;;;5041437;28;20223;-74
2021/12/27 11:56:44;;;;;;;0.60;0.60;;;;;;;;;;5042494;28;20272;-74
2021/12/27 11:59:31;;;;;;;0.40;0.40;;;;;;;;;;5055063;28;20692;-74
2021/12/27 12:02:00;;;;;;;0.67;0.67;;;;;;;;;;5041534;28;20224;-77
2021/12/27 12:04:48;;;;;;;0.57;0.57;;;;;;;;;;5023698;28;20223;-75
2021/12/27 12:07:34;;;;;;;1.03;1.03;;;;;;;;;;5014188;28;20271;-74
2021/12/27 12:10:04;;;;;;;0.97;0.97;;;;;;;;;;5055650;28;20226;-73
2021/12/27 12:12:38;;;;;;;0.60;0.60;;;;;;;;;;5075141;28;20221;-75
2021/12/27 12:15:04;;;;;;;1.27;1.27;;;;;;;;;;5052832;28;20223;-74
2021/12/27 12:17:47;;;;;;;3.90;3.60;;;;;;;;;;5022660;28;20218;-74
2021/12/27 12:20:34;;;;;;;0.10;0.10;;;;;;;;;;5050077;28;20220;-74
2021/12/27 12:23:00;;;;;;;0.10;0.10;;;;;;;;;;5018173;28;20238;-74
2021/12/27 12:25:26;;;;;;;0.57;0.57;;;;;;;;;;5067396;28;20226;-73
2021/12/27 12:28:02;;;;;;;1.40;1.30;;;;;;;;;;5012508;28;20219;-73
2021/12/27 12:30:32;;;;;;;0.50;0.50;;;;;;;;;;5018511;28;20257;-74
2021/12/27 12:33:10;;;;;;;0.10;0.10;;;;;;;;;;5040462;28;20227;-74
2021/12/27 12:35:42;;;;;;;0.10;0.10;;;;;;;;;;5039305;28;20796;-74
2021/12/27 12:38:21;;;;;;;1.13;1.13;;;;;;;;;;5040736;28;20226;-74
2021/12/27 12:41:00;;;;;;;1.07;1.07;;;;;;;;;;5063751;28;20754;-74
2021/12/27 12:43:32;;;;;;;0.10;0.10;;;;;;;;;;5056903;28;20276;-75
2021/12/27 12:46:13;;;;;;;0.10;0.10;;;;;;;;;;5073049;28;20219;-75
2021/12/27 12:48:40;;;;;;;1.33;1.23;;;;;;;;;;5042904;28;20256;-74
2021/12/27 12:51:06;;;;;;;0.20;0.20;;;;;;;;;;5031196;28;20225;-74
2021/12/27 12:53:34;;;;;;;1.83;1.70;;;;;;;;;;5041326;28;20211;-73
2021/12/27 12:56:08;;;;;;;3.57;2.10;;;;;;;;;;5058108;28;20222;-74
2021/12/27 12:58:35;;;;;;;0.70;0.70;;;;;;;;;;5046167;28;20219;-75
2021/12/27 13:01:05;;;;;;;0.93;0.93;;;;;;;;;;5031742;28;20269;-75
2021/12/27 13:03:33;;;;;;;0.60;0.60;;;;;;;;;;5059554;28;20277;-74
2021/12/27 13:06:03;;;;;;;0.77;0.77;;;;;;;;;;5023331;28;20219;-74
2021/12/27 13:08:31;;;;;;;0.20;0.20;;;;;;;;;;5062878;28;20237;-76
2021/12/27 13:11:02;;;;;;;11.53;2.03;;;;;;;;;;5035627;28;20215;-75
2021/12/27 13:13:30;;;;;;;1.40;1.30;;;;;;;;;;5073102;28;20219;-76
2021/12/27 13:16:03;;;;;;;0.63;0.63;;;;;;;;;;5061953;28;20226;-76
2021/12/27 13:18:37;;;;;;;0.33;0.33;;;;;;;;;;5082119;28;20233;-75
2021/12/27 13:21:09;;;;;;;0.80;0.80;;;;;;;;;;5048241;28;20219;-76
2021/12/27 13:23:39;;;;;;;1.40;1.30;;;;;;;;;;5014477;28;20322;-75
2021/12/27 13:26:11;;;;;;;0.10;0.10;;;;;;;;;;5048686;28;20233;-76
2021/12/27 13:28:44;;;;;;;0.80;0.80;;;;;;;;;;5065972;28;20218;-76
2021/12/27 13:31:15;;;;;;;0.20;0.20;;;;;;;;;;5065191;28;20215;-76
2021/12/27 13:33:44;;;;;;;0.10;0.10;;;;;;;;;;5033349;28;20226;-76
2021/12/27 13:36:16;;;;;;;1.70;1.60;;;;;;;;;;5064914;28;20214;-75
2021/12/27 13:38:43;;;;;;;0.17;0.17;;;;;;;;;;5049374;28;20250;-76
2021/12/27 13:41:11;;;;;;;2.90;1.97;;;;;;;;;;5056370;28;20276;-76
2021/12/27 13:43:55;;;;;;;5.10;1.60;;;;;;;;;;5065221;28;20234;-76
2021/12/27 13:46:26;;;;;;;0.33;0.33;;;;;;;;;;5047141;28;20219;-76
2021/12/27 13:48:54;;;;;;;2.10;1.90;;;;;;;;;;5049345;28;20222;-77
2021/12/27 13:51:27;;;;;;;0.17;0.17;;;;;;;;;;5070307;28;20211;-73
2021/12/27 13:53:54;;;;;;;0.37;0.37;;;;;;;;;;5053673;28;20237;-75
2021/12/27 13:56:20;;;;;;;0.20;0.20;;;;;;;;;;5049078;28;20210;-76
2021/12/27 13:58:48;;;;;;;1.37;1.33;;;;;;;;;;5083370;28;20309;-76
2021/12/27 14:01:20;;;;;;;0.83;0.83;;;;;;;;;;5064453;28;20214;-76
2021/12/27 14:03:50;;;;;;;2.27;2.13;;;;;;;;;;5064942;28;20230;-77
2021/12/27 14:06:17;;;;;;;0.60;0.60;;;;;;;;;;5031352;28;20211;-76
2021/12/27 14:08:53;;;;;;;0.77;0.77;;;;;;;;;;5048513;28;20218;-76
2021/12/27 14:11:21;;;;;;;0.27;0.27;;;;;;;;;;5048305;28;20281;-76
2021/12/27 14:13:50;;;;;;;0.97;0.97;;;;;;;;;;5081722;28;20602;-75
2021/12/27 14:16:41;;;;;;;0.67;0.67;;;;;;;;;;5080567;28;20222;-76
2021/12/27 14:19:18;;;;;;;1.50;1.43;;;;;;;;;;5050128;28;20292;-76
2021/12/27 14:22:03;;;;;;;0.57;0.57;;;;;;;;;;5063938;28;20218;-77
2021/12/27 14:24:43;;;;;;;0.50;0.50;;;;;;;;;;5059960;28;20235;-75
2021/12/27 14:27:17;;;;;;;1.50;1.43;;;;;;;;;;5026883;28;20246;-76
2021/12/27 14:30:07;;;;;;;0.97;0.97;;;;;;;;;;5053926;28;20285;-76
2021/12/27 14:32:33;;;;;;;0.70;0.70;;;;;;;;;;5062863;28;20291;-73
2021/12/27 14:35:01;;;;;;;1.17;1.17;;;;;;;;;;5069657;28;20223;-75
2021/12/27 14:37:31;;;;;;;1.13;1.13;;;;;;;;;;5043501;28;20219;-74
2021/12/27 14:39:59;;;;;;;0.60;0.60;;;;;;;;;;5030878;28;20223;-75
2021/12/27 14:42:27;;;;;;;0.33;0.33;;;;;;;;;;5067182;28;20248;-74
2021/12/27 14:44:56;;;;;;;0.50;0.50;;;;;;;;;;5045254;28;20231;-73
2021/12/27 14:47:24;;;;;;;1.07;1.07;;;;;;;;;;5041221;28;20210;-77
2021/12/27 14:49:50;;;;;;;0.37;0.37;;;;;;;;;;5024717;28;20226;-75
2021/12/27 14:52:16;;;;;;;0.87;0.87;;;;;;;;;;5046116;28;20219;-75
2021/12/27 14:54:45;;;;;;;0.43;0.43;;;;;;;;;;5054409;28;20221;-75
2021/12/27 14:57:15;;;;;;;0.20;0.20;;;;;;;;;;5065780;28;20555;-74
2021/12/27 14:59:40;;;;;;;0.53;0.53;;;;;;;;;;5061311;28;20719;-75